Dallas City, Illinois
Current Conditions -  °F | °C
As of 9:35 PM on Sunday 23 Nov 2014 (Local Time) from KFSW Reporting Station
Light Rain Light Rain  
Wind Chill: 54°   Ceiling: NA
Heat Index: 54°   Visibility: 4mi
Dew Point: 54°   Wind: 13mph
Humidity: 100%   Direction: 310°NW
Pressure: 29.22"   Gusts: NA
Location:  40.64°N, 91.17°W
Report Text: KFSW 240335Z AUTO 31011KT 4SM -RA 12/12 A2922 RMK AO2
Loading
Personal Weather Stations






























Interactive Weather Map New forecast layout! Learn more

10-Day Weather Forecast

Advertisements
Track Severe Weather on mobile